createdAt,value
2022-09-16T00:01:21.798Z,4.23
2022-09-16T00:03:48.245Z,6.27
2022-09-16T00:06:19.449Z,6.97
2022-09-16T00:08:45.854Z,8.03
2022-09-16T00:11:12.517Z,8.87
2022-09-16T00:13:38.880Z,8.13
2022-09-16T00:16:09.932Z,7.57
2022-09-16T00:18:36.384Z,4.40
2022-09-16T00:21:02.772Z,6.70
2022-09-16T00:23:29.097Z,6.57
2022-09-16T00:25:55.587Z,9.57
2022-09-16T00:28:22.472Z,7.57
2022-09-16T00:30:49.379Z,10.40
2022-09-16T00:33:16.342Z,12.17
2022-09-16T00:35:42.757Z,4.97
2022-09-16T00:38:09.115Z,5.43
2022-09-16T00:40:35.911Z,8.30
2022-09-16T00:43:02.315Z,8.23
2022-09-16T00:45:31.700Z,7.97
2022-09-16T00:47:59.822Z,12.10
2022-09-16T00:50:26.152Z,8.13
2022-09-16T00:52:53.908Z,9.00
2022-09-16T00:55:23.471Z,9.27
2022-09-16T00:57:50.768Z,13.47
2022-09-16T01:00:17.800Z,13.97
2022-09-16T01:02:45.648Z,9.73
2022-09-16T01:05:14.243Z,15.20
2022-09-16T01:07:51.032Z,10.33
2022-09-16T01:10:19.346Z,11.93
2022-09-16T01:12:47.607Z,9.53
2022-09-16T01:15:14.467Z,8.87
2022-09-16T01:17:46.991Z,10.83
2022-09-16T01:20:16.430Z,10.83
2022-09-16T01:22:55.020Z,13.23
2022-09-16T01:25:28.316Z,10.10
2022-09-16T01:28:18.697Z,11.43
2022-09-16T01:30:45.065Z,7.33
2022-09-16T01:33:27.267Z,12.67
2022-09-16T01:36:02.063Z,8.77
2022-09-16T01:38:46.152Z,10.10
2022-09-16T01:41:24.686Z,9.33
2022-09-16T01:43:57.996Z,9.90
2022-09-16T01:46:24.368Z,11.87
2022-09-16T01:48:53.731Z,11.13
2022-09-16T01:51:27.019Z,8.33
2022-09-16T01:54:07.202Z,12.33
2022-09-16T01:56:39.770Z,9.73
2022-09-16T01:59:06.104Z,9.73
2022-09-16T02:01:35.483Z,10.63
2022-09-16T02:04:04.058Z,10.27
2022-09-16T02:06:31.772Z,9.73
2022-09-16T02:09:06.207Z,12.40
2022-09-16T02:11:33.186Z,11.40
2022-09-16T02:14:20.877Z,12.57
2022-09-16T02:16:51.241Z,10.83
2022-09-16T02:19:20.705Z,11.10
2022-09-16T02:21:47.466Z,7.80
2022-09-16T02:24:16.959Z,10.57
2022-09-16T02:26:46.420Z,17.63
2022-09-16T02:29:15.322Z,18.37
2022-09-16T02:31:43.279Z,11.63
2022-09-16T02:34:14.442Z,13.03
2022-09-16T02:36:41.735Z,7.57
2022-09-16T02:39:09.420Z,15.30
2022-09-16T02:41:37.312Z,12.13
2022-09-16T02:44:03.769Z,9.90
2022-09-16T02:46:53.142Z,12.03
2022-09-16T02:49:26.869Z,11.70
2022-09-16T02:51:56.265Z,7.00
2022-09-16T02:54:40.812Z,13.80
2022-09-16T02:57:07.224Z,6.77
2022-09-16T02:59:33.592Z,9.97
2022-09-16T03:02:01.356Z,8.87
2022-09-16T03:04:28.402Z,7.90
2022-09-16T03:06:54.758Z,11.80
2022-09-16T03:09:24.330Z,7.27
2022-09-16T03:12:03.046Z,8.37
2022-09-16T03:14:39.915Z,8.03
2022-09-16T03:17:24.835Z,10.37
2022-09-16T03:20:12.103Z,11.23
2022-09-16T03:22:48.410Z,9.13
2022-09-16T03:25:36.410Z,9.10
2022-09-16T03:28:02.899Z,7.27
2022-09-16T03:30:32.219Z,8.37
2022-09-16T03:33:00.205Z,10.83
2022-09-16T03:35:28.822Z,5.77
2022-09-16T03:37:56.934Z,10.50
2022-09-16T03:40:23.457Z,12.37
2022-09-16T03:42:50.103Z,9.43
2022-09-16T03:45:17.699Z,9.80
2022-09-16T03:47:45.595Z,10.63
2022-09-16T03:50:34.601Z,7.53
2022-09-16T03:53:01.235Z,9.90
2022-09-16T03:55:27.618Z,13.40
2022-09-16T03:57:54.182Z,11.33
2022-09-16T04:00:20.602Z,9.90
2022-09-16T04:02:47.129Z,10.80
2022-09-16T04:05:13.563Z,16.33
2022-09-16T04:07:39.935Z,10.40
2022-09-16T04:10:06.994Z,9.37
2022-09-16T04:12:33.830Z,14.40
2022-09-16T04:15:01.002Z,8.70
2022-09-16T04:17:27.578Z,13.33
2022-09-16T04:19:53.961Z,10.63
2022-09-16T04:22:20.604Z,8.47
2022-09-16T04:24:46.957Z,6.33
2022-09-16T04:27:13.306Z,5.53
2022-09-16T04:29:39.655Z,9.77
2022-09-16T04:32:06.032Z,8.10
2022-09-16T04:34:32.581Z,11.73
2022-09-16T04:36:59.270Z,12.03
2022-09-16T04:39:25.670Z,13.23
2022-09-16T04:41:52.041Z,24.83
2022-09-16T04:44:18.494Z,9.13
2022-09-16T04:46:44.824Z,12.47
2022-09-16T04:49:12.900Z,9.77
2022-09-16T04:51:39.330Z,11.23
2022-09-16T04:54:05.720Z,10.47
2022-09-16T04:56:32.887Z,10.17
2022-09-16T04:59:00.585Z,7.73
2022-09-16T05:01:28.822Z,8.67
2022-09-16T05:03:56.235Z,8.07
2022-09-16T05:06:29.598Z,10.83
2022-09-16T05:08:56.519Z,11.90
2022-09-16T05:11:24.282Z,10.80
2022-09-16T05:13:50.971Z,9.27
2022-09-16T05:16:20.668Z,15.13
2022-09-16T05:18:47.941Z,12.67
2022-09-16T05:21:16.070Z,18.53
2022-09-16T05:23:46.704Z,13.83
2022-09-16T05:26:15.405Z,16.60
2022-09-16T05:28:41.797Z,13.97
2022-09-16T05:31:09.682Z,6.87
2022-09-16T05:33:36.109Z,9.50
2022-09-16T05:36:06.427Z,7.07
2022-09-16T05:38:33.221Z,9.10
2022-09-16T05:41:00.415Z,12.10
2022-09-16T05:43:26.806Z,11.37
2022-09-16T05:45:53.819Z,13.43
2022-09-16T05:48:20.278Z,8.77
2022-09-16T05:51:03.703Z,12.83
2022-09-16T05:53:30.758Z,13.37
2022-09-16T05:56:01.656Z,11.77
2022-09-16T05:58:28.950Z,9.20
2022-09-16T06:01:02.236Z,13.37
2022-09-16T06:03:28.979Z,13.63
2022-09-16T06:06:21.933Z,8.73
2022-09-16T06:08:48.829Z,6.67
2022-09-16T06:11:15.671Z,14.83
2022-09-16T06:13:42.026Z,10.47
2022-09-16T06:16:09.596Z,6.53
2022-09-16T06:18:36.746Z,10.27
2022-09-16T06:21:04.967Z,7.80
2022-09-16T06:23:31.580Z,11.47
2022-09-16T06:26:02.080Z,14.33
2022-09-16T06:28:28.686Z,8.43
2022-09-16T06:31:08.962Z,12.63
2022-09-16T06:33:35.682Z,10.20
2022-09-16T06:36:09.372Z,13.97
2022-09-16T06:38:36.332Z,11.60
2022-09-16T06:41:04.011Z,12.80
2022-09-16T06:43:30.488Z,8.60
2022-09-16T06:45:58.204Z,8.10
2022-09-16T06:48:24.923Z,12.90
2022-09-16T06:50:57.231Z,11.40
2022-09-16T06:53:23.555Z,8.43
2022-09-16T06:55:49.894Z,6.57
2022-09-16T06:58:16.202Z,8.67
2022-09-16T07:00:42.544Z,9.73
2022-09-16T07:03:08.891Z,11.17
2022-09-16T07:05:35.271Z,10.10
2022-09-16T07:08:01.720Z,12.87
2022-09-16T07:10:28.312Z,10.80
2022-09-16T07:12:54.717Z,9.87
2022-09-16T07:15:21.054Z,8.77
2022-09-16T07:17:47.387Z,12.67
2022-09-16T07:20:13.832Z,11.77
2022-09-16T07:22:40.275Z,10.73
2022-09-16T07:25:06.723Z,12.63
2022-09-16T07:27:33.095Z,5.87
2022-09-16T07:30:00.289Z,6.40
2022-09-16T07:32:26.839Z,13.73
2022-09-16T07:34:53.975Z,11.43
2022-09-16T07:37:21.158Z,5.13
2022-09-16T07:39:47.516Z,10.23
2022-09-16T07:42:13.904Z,8.43
2022-09-16T07:44:40.754Z,5.33
2022-09-16T07:47:07.119Z,7.97
2022-09-16T07:49:33.520Z,14.33
2022-09-16T07:52:00.394Z,9.77
2022-09-16T07:54:26.749Z,16.87
2022-09-16T07:56:53.164Z,10.27
2022-09-16T07:59:20.087Z,7.77
2022-09-16T08:01:47.890Z,11.37
2022-09-16T08:04:14.664Z,6.30
2022-09-16T08:06:41.092Z,11.93
2022-09-16T08:09:15.548Z,15.53
2022-09-16T08:11:54.280Z,7.13
2022-09-16T08:14:20.612Z,11.33
2022-09-16T08:16:47.165Z,9.47
2022-09-16T08:19:13.824Z,8.70
2022-09-16T08:21:40.159Z,15.70
2022-09-16T08:24:06.498Z,5.70
2022-09-16T08:26:32.853Z,11.10
2022-09-16T08:29:14.873Z,10.63
2022-09-16T08:31:41.507Z,9.77
2022-09-16T08:34:07.870Z,9.23
2022-09-16T08:36:34.432Z,8.57
2022-09-16T08:39:01.120Z,7.90
2022-09-16T08:41:33.584Z,8.77
2022-09-16T08:44:18.210Z,8.53
2022-09-16T08:46:50.324Z,5.77
2022-09-16T08:49:32.043Z,11.57
2022-09-16T08:51:59.483Z,10.17
2022-09-16T08:54:38.549Z,8.97
2022-09-16T08:57:05.435Z,11.07
2022-09-16T08:59:37.647Z,6.80
2022-09-16T09:02:09.670Z,9.23
2022-09-16T09:04:36.424Z,7.50
2022-09-16T09:07:02.810Z,6.60
2022-09-16T09:09:31.457Z,11.47
2022-09-16T09:12:17.339Z,8.80
2022-09-16T09:15:02.877Z,9.30
2022-09-16T09:17:55.656Z,8.90
2022-09-16T09:20:21.986Z,7.30
2022-09-16T09:22:53.521Z,13.60
2022-09-16T09:25:19.846Z,11.67
2022-09-16T09:27:55.434Z,11.30
2022-09-16T09:30:21.856Z,10.27
2022-09-16T09:32:57.828Z,10.33
2022-09-16T09:35:24.218Z,10.87
2022-09-16T09:37:59.060Z,11.50
2022-09-16T09:40:37.840Z,10.67
2022-09-16T09:43:19.318Z,13.73
2022-09-16T09:45:48.714Z,10.27
2022-09-16T09:48:23.733Z,4.87
2022-09-16T09:50:51.183Z,6.20
2022-09-16T09:53:28.893Z,8.23
2022-09-16T09:56:00.423Z,9.43
2022-09-16T09:58:59.256Z,14.27
2022-09-16T10:01:25.675Z,8.80
2022-09-16T10:03:54.539Z,11.10
2022-09-16T10:06:26.069Z,10.63
2022-09-16T10:08:54.232Z,12.23
2022-09-16T10:11:22.510Z,12.10
2022-09-16T10:13:50.644Z,6.00
2022-09-16T10:16:21.780Z,7.17
2022-09-16T10:19:00.697Z,11.93
2022-09-16T10:21:37.276Z,10.47
2022-09-16T10:24:03.658Z,10.50
2022-09-16T10:26:30.138Z,12.70
2022-09-16T10:29:12.605Z,8.30
2022-09-16T10:31:40.729Z,8.47
2022-09-16T10:34:17.491Z,5.03
2022-09-16T10:36:44.133Z,6.87
2022-09-16T10:39:21.650Z,8.77
2022-09-16T10:41:47.981Z,9.37
2022-09-16T10:44:17.532Z,8.77
2022-09-16T10:46:52.283Z,7.97
2022-09-16T10:49:20.424Z,4.50
2022-09-16T10:51:46.778Z,6.57
2022-09-16T10:54:23.951Z,6.70
2022-09-16T10:56:51.503Z,7.93
2022-09-16T10:59:17.871Z,7.17
2022-09-16T11:01:52.883Z,5.80
2022-09-16T11:04:25.699Z,16.93
2022-09-16T11:07:00.545Z,7.23
2022-09-16T11:09:36.426Z,7.10
2022-09-16T11:12:11.084Z,11.37
2022-09-16T11:14:43.479Z,9.23
2022-09-16T11:17:23.882Z,5.87
2022-09-16T11:19:50.214Z,8.23
2022-09-16T11:22:28.849Z,10.80
2022-09-16T11:25:11.903Z,7.27
2022-09-16T11:27:55.470Z,12.00
2022-09-16T11:30:22.559Z,6.73
2022-09-16T11:33:03.016Z,10.93
2022-09-16T11:35:35.806Z,6.73
2022-09-16T11:38:08.211Z,4.83
2022-09-16T11:40:42.590Z,9.27
2022-09-16T11:43:18.023Z,9.87
2022-09-16T11:45:56.803Z,8.73
2022-09-16T11:48:23.118Z,8.17
2022-09-16T11:50:58.517Z,10.67
2022-09-16T11:53:46.619Z,12.70
2022-09-16T11:56:32.115Z,9.60
2022-09-16T11:59:04.682Z,9.63
2022-09-16T12:01:45.863Z,9.80
2022-09-16T12:04:22.866Z,10.57
2022-09-16T12:07:09.512Z,9.20
2022-09-16T12:09:49.057Z,10.70
2022-09-16T12:12:20.129Z,9.30
2022-09-16T12:15:05.663Z,5.30
2022-09-16T12:17:35.054Z,10.37
2022-09-16T12:20:13.710Z,9.10
2022-09-16T12:22:42.339Z,8.87
2022-09-16T12:25:14.764Z,5.90
2022-09-16T12:27:50.856Z,13.13
2022-09-16T12:30:19.010Z,16.70
2022-09-16T12:33:06.165Z,16.63
2022-09-16T12:35:41.023Z,10.07
2022-09-16T12:38:17.935Z,7.80
2022-09-16T12:41:10.863Z,13.70
2022-09-16T12:43:51.603Z,9.43
2022-09-16T12:46:37.110Z,14.97
2022-09-16T12:49:06.503Z,13.50
2022-09-16T12:51:50.676Z,9.57
2022-09-16T12:54:17.120Z,8.73
2022-09-16T12:56:50.642Z,10.87
2022-09-16T12:59:41.786Z,7.73
2022-09-16T13:02:22.760Z,6.10
2022-09-16T13:04:51.311Z,7.50
2022-09-16T13:07:28.165Z,8.53
2022-09-16T13:10:06.127Z,7.73
2022-09-16T13:12:41.508Z,7.00
2022-09-16T13:15:22.156Z,11.27
2022-09-16T13:17:52.789Z,8.83
2022-09-16T13:20:30.105Z,11.23
2022-09-16T13:23:15.169Z,2.77
2022-09-16T13:25:48.363Z,10.93
2022-09-16T13:28:25.226Z,6.50
2022-09-16T13:30:51.653Z,8.67
2022-09-16T13:33:18.021Z,4.93
2022-09-16T13:35:46.788Z,6.70
2022-09-16T13:38:19.265Z,11.20
2022-09-16T13:40:59.440Z,9.03
2022-09-16T13:43:50.526Z,4.60
2022-09-16T13:46:32.159Z,6.43
2022-09-16T13:49:11.012Z,8.60
2022-09-16T13:51:44.570Z,10.20
2022-09-16T13:54:31.209Z,8.23
2022-09-16T13:57:12.754Z,8.97
2022-09-16T13:59:39.384Z,7.67
2022-09-16T14:02:08.892Z,8.43
2022-09-16T14:04:35.502Z,6.77
2022-09-16T14:07:11.101Z,13.67
2022-09-16T14:10:00.572Z,10.10
2022-09-16T14:12:33.067Z,14.43
2022-09-16T14:14:59.974Z,14.67
2022-09-16T14:17:30.664Z,7.83
2022-09-16T14:19:59.752Z,16.00
2022-09-16T14:22:27.692Z,18.60
2022-09-16T14:25:05.785Z,21.13
2022-09-16T14:27:39.864Z,19.00
2022-09-16T14:30:12.967Z,11.97
2022-09-16T14:32:40.807Z,9.83
2022-09-16T14:35:16.380Z,12.50
2022-09-16T14:37:44.958Z,22.87
2022-09-16T14:40:15.382Z,14.13
2022-09-16T14:43:03.251Z,12.53
2022-09-16T14:45:30.786Z,14.17
2022-09-16T14:47:57.994Z,17.30
2022-09-16T14:50:30.356Z,10.03
2022-09-16T14:53:00.918Z,16.83
2022-09-16T14:55:30.081Z,17.23
2022-09-16T14:57:58.206Z,13.33
2022-09-16T15:00:39.162Z,11.77
2022-09-16T15:03:12.088Z,16.30
2022-09-16T15:05:42.662Z,17.40
2022-09-16T15:08:14.193Z,14.63
2022-09-16T15:10:51.986Z,26.50
2022-09-16T15:13:22.993Z,21.87
2022-09-16T15:15:51.231Z,17.13
2022-09-16T15:18:32.844Z,17.33
2022-09-16T15:21:05.182Z,13.60
2022-09-16T15:23:39.293Z,20.33
2022-09-16T15:26:14.502Z,19.77
2022-09-16T15:29:01.111Z,18.43
2022-09-16T15:31:38.879Z,17.30
2022-09-16T15:34:19.150Z,18.33
2022-09-16T15:36:46.964Z,9.70
2022-09-16T15:39:25.513Z,16.27
2022-09-16T15:42:05.003Z,6.77
2022-09-16T15:44:36.429Z,12.73
2022-09-16T15:47:04.129Z,15.63
2022-09-16T15:49:32.261Z,23.07
2022-09-16T15:55:00.776Z,11.57
2022-09-16T15:57:38.515Z,10.73
2022-09-16T16:00:12.443Z,9.53
2022-09-16T16:02:41.350Z,13.77
2022-09-16T16:05:08.952Z,19.77
2022-09-16T16:07:49.221Z,15.67
2022-09-16T16:10:23.847Z,16.37
2022-09-16T16:12:51.114Z,10.87
2022-09-16T16:15:25.312Z,10.57
2022-09-16T16:17:53.119Z,16.30
2022-09-16T16:20:20.125Z,13.87
2022-09-16T16:22:47.013Z,9.70
2022-09-16T16:25:14.045Z,16.60
2022-09-16T16:27:40.562Z,14.00
2022-09-16T16:30:07.933Z,22.10
2022-09-16T16:32:35.141Z,15.13
2022-09-16T16:35:01.866Z,17.50
2022-09-16T16:37:45.590Z,13.63
2022-09-16T16:40:14.210Z,26.63
2022-09-16T16:42:43.120Z,18.43
2022-09-16T16:45:09.667Z,22.87
2022-09-16T16:47:36.094Z,23.40
2022-09-16T16:50:02.431Z,25.53
2022-09-16T16:52:28.755Z,26.57
2022-09-16T16:54:55.137Z,36.93
2022-09-16T16:57:21.569Z,31.40
2022-09-16T16:59:47.922Z,16.50
2022-09-16T17:02:15.182Z,25.50
2022-09-16T17:04:41.649Z,34.37
2022-09-16T17:07:25.165Z,22.67
2022-09-16T17:09:53.304Z,32.37
2022-09-16T17:12:19.756Z,57.37
2022-09-16T17:14:46.158Z,35.13
2022-09-16T17:17:12.531Z,39.90
2022-09-16T17:19:38.873Z,31.87
2022-09-16T17:22:05.232Z,38.43
2022-09-16T17:24:31.690Z,29.97
2022-09-16T17:26:58.045Z,34.30
2022-09-16T17:29:24.411Z,40.80
2022-09-16T17:31:50.787Z,37.30
2022-09-16T17:34:19.995Z,36.60
2022-09-16T17:36:46.619Z,31.10
2022-09-16T17:39:17.911Z,32.97
2022-09-16T17:41:45.708Z,37.67
2022-09-16T17:44:13.106Z,34.30
2022-09-16T17:46:40.114Z,38.13
2022-09-16T17:49:07.939Z,30.27
2022-09-16T17:51:34.806Z,34.10
2022-09-16T17:54:01.257Z,38.40
2022-09-16T17:56:27.606Z,37.77
2022-09-16T17:58:54.376Z,32.43
2022-09-16T18:01:22.083Z,29.67
2022-09-16T18:03:49.679Z,53.97
2022-09-16T18:06:17.853Z,28.93
2022-09-16T18:08:44.242Z,32.37
2022-09-16T18:11:11.787Z,46.13
2022-09-16T18:13:39.240Z,51.00
2022-09-16T18:16:10.695Z,37.20
2022-09-16T18:18:38.052Z,24.60
2022-09-16T18:21:04.941Z,29.80
2022-09-16T18:23:31.527Z,35.57
2022-09-16T18:25:57.924Z,23.63
2022-09-16T18:28:24.491Z,38.40
2022-09-16T18:31:01.048Z,25.10
2022-09-16T18:33:27.487Z,32.07
2022-09-16T18:35:57.668Z,30.50
2022-09-16T18:38:24.021Z,38.73
2022-09-16T18:40:51.215Z,31.20
2022-09-16T18:43:17.544Z,26.53
2022-09-16T18:45:44.215Z,36.37
2022-09-16T18:48:10.605Z,32.17
2022-09-16T18:50:36.940Z,26.97
2022-09-16T18:53:03.300Z,42.50
2022-09-16T18:55:31.126Z,32.03
2022-09-16T18:57:57.843Z,32.50
2022-09-16T19:00:24.242Z,27.37
2022-09-16T19:02:51.896Z,25.97
2022-09-16T19:05:19.333Z,35.97
2022-09-16T19:07:45.691Z,36.70
2022-09-16T19:10:12.020Z,19.93
2022-09-16T19:12:39.406Z,32.23
2022-09-16T19:15:06.402Z,38.03
2022-09-16T19:17:33.138Z,26.73
2022-09-16T19:20:00.336Z,32.20
2022-09-16T19:22:26.865Z,37.93
2022-09-16T19:24:54.287Z,34.20
2022-09-16T19:27:20.629Z,21.20
2022-09-16T19:29:46.966Z,20.00
2022-09-16T19:32:13.404Z,34.27
2022-09-16T19:34:39.807Z,28.67
2022-09-16T19:37:06.323Z,36.87
2022-09-16T19:39:32.707Z,24.67
2022-09-16T19:42:03.487Z,35.97
2022-09-16T19:44:30.141Z,33.30
2022-09-16T19:46:56.702Z,28.73
2022-09-16T19:49:23.308Z,33.70
2022-09-16T19:51:50.919Z,28.53
2022-09-16T19:54:17.400Z,27.13
2022-09-16T19:56:48.176Z,33.97
2022-09-16T19:59:16.662Z,32.13
2022-09-16T20:01:43.922Z,22.37
2022-09-16T20:04:10.809Z,27.90
2022-09-16T20:06:38.767Z,35.93
2022-09-16T20:09:06.457Z,28.03
2022-09-16T20:11:34.726Z,29.43
2022-09-16T20:14:02.350Z,26.57
2022-09-16T20:16:31.348Z,25.97
2022-09-16T20:18:57.933Z,22.40
2022-09-16T20:21:25.393Z,26.63
2022-09-16T20:23:52.229Z,17.77
2022-09-16T20:26:22.083Z,18.37
2022-09-16T20:28:52.098Z,23.80
2022-09-16T20:31:20.691Z,23.97
2022-09-16T20:33:47.594Z,26.47
2022-09-16T20:36:15.491Z,29.00
2022-09-16T20:38:41.867Z,21.37
2022-09-16T20:41:09.947Z,32.07
2022-09-16T20:43:36.443Z,24.87
2022-09-16T20:46:03.909Z,30.53
2022-09-16T20:48:30.343Z,21.10
2022-09-16T20:50:56.680Z,28.33
2022-09-16T20:53:23.220Z,23.50
2022-09-16T20:55:49.555Z,28.70
2022-09-16T20:58:15.889Z,24.33
2022-09-16T21:00:42.307Z,31.67
2022-09-16T21:03:11.522Z,23.13
2022-09-16T21:05:37.848Z,24.80
2022-09-16T21:08:04.814Z,29.50
2022-09-16T21:10:31.126Z,15.93
2022-09-16T21:12:58.032Z,29.40
2022-09-16T21:15:24.426Z,25.73
2022-09-16T21:17:50.738Z,28.37
2022-09-16T21:20:18.252Z,26.27
2022-09-16T21:22:44.625Z,25.13
2022-09-16T21:25:11.430Z,39.30
2022-09-16T21:27:38.126Z,62.50
2022-09-16T21:30:04.788Z,19.37
2022-09-16T21:32:32.606Z,23.90
2022-09-16T21:34:59.385Z,22.20
2022-09-16T21:37:25.758Z,26.67
2022-09-16T21:39:52.121Z,23.17
2022-09-16T21:42:18.463Z,27.90
2022-09-16T21:44:45.388Z,27.60
2022-09-16T21:47:12.111Z,29.93
2022-09-16T21:49:38.546Z,19.60
2022-09-16T21:52:05.033Z,25.83
2022-09-16T21:54:32.326Z,19.43
2022-09-16T21:56:59.543Z,23.27
2022-09-16T21:59:25.930Z,23.67
2022-09-16T22:01:52.328Z,35.53
2022-09-16T22:04:20.286Z,31.83
2022-09-16T22:06:48.737Z,28.17
2022-09-16T22:09:15.138Z,28.47
2022-09-16T22:11:41.904Z,32.00
2022-09-16T22:14:08.785Z,28.50
2022-09-16T22:16:37.509Z,30.83
2022-09-16T22:19:05.106Z,24.03
2022-09-16T22:21:33.493Z,35.70
2022-09-16T22:24:00.450Z,29.13
2022-09-16T22:26:27.148Z,31.67
2022-09-16T22:28:53.562Z,29.43
2022-09-16T22:31:25.569Z,31.97
2022-09-16T22:33:53.134Z,30.47
2022-09-16T22:36:20.401Z,32.10
2022-09-16T22:38:51.679Z,26.50
2022-09-16T22:41:18.551Z,40.00
2022-09-16T22:43:46.095Z,42.07
2022-09-16T22:46:22.132Z,26.60
2022-09-16T22:48:48.929Z,33.03
2022-09-16T22:51:16.112Z,40.90
2022-09-16T22:53:43.161Z,33.60
2022-09-16T22:56:10.825Z,27.97
2022-09-16T22:58:37.170Z,30.10
2022-09-16T23:01:11.227Z,34.30
2022-09-16T23:03:37.987Z,45.57
2022-09-16T23:06:05.878Z,44.57
2022-09-16T23:08:33.838Z,52.57
2022-09-16T23:11:04.255Z,34.87
2022-09-16T23:13:34.517Z,41.63
2022-09-16T23:16:05.618Z,50.07
2022-09-16T23:18:33.122Z,45.47
2022-09-16T23:21:09.625Z,37.57
2022-09-16T23:23:37.695Z,50.40
2022-09-16T23:26:05.642Z,52.87
2022-09-16T23:28:32.198Z,36.33
2022-09-16T23:31:05.440Z,42.90
2022-09-16T23:33:32.133Z,47.03
2022-09-16T23:35:58.510Z,40.73
2022-09-16T23:38:24.933Z,53.40
2022-09-16T23:40:51.284Z,49.27
2022-09-16T23:43:17.619Z,49.03
2022-09-16T23:45:45.538Z,39.77
2022-09-16T23:48:12.023Z,35.43
2022-09-16T23:50:38.402Z,39.80
2022-09-16T23:53:04.782Z,48.60
2022-09-16T23:55:31.188Z,37.80
2022-09-16T23:57:57.843Z,39.00
